createdAt,value
2022-12-12T00:02:13.837Z,101150.59
2022-12-12T00:04:40.466Z,101157.31
2022-12-12T00:07:07.898Z,101157.41
2022-12-12T00:09:34.878Z,101146.94
2022-12-12T00:12:01.910Z,101158.97
2022-12-12T00:14:28.919Z,101158.03
2022-12-12T00:16:55.984Z,101162.22
2022-12-12T00:19:22.510Z,101147.25
2022-12-12T00:21:49.841Z,101162.31
2022-12-12T00:24:16.421Z,101163.03
2022-12-12T00:26:42.997Z,101160.50
2022-12-12T00:29:11.115Z,101162.38
2022-12-12T00:31:37.706Z,101127.41
2022-12-12T00:34:04.234Z,101167.41
2022-12-12T00:36:31.815Z,101154.53
2022-12-12T00:38:58.766Z,101167.41
2022-12-12T00:41:26.266Z,101150.88
2022-12-12T00:43:53.305Z,101163.91
2022-12-12T00:46:22.472Z,101161.28
2022-12-12T00:48:49.937Z,101165.28
2022-12-12T00:51:20.212Z,101163.81
2022-12-12T00:53:47.827Z,101178.50
2022-12-12T00:56:19.432Z,101173.44
2022-12-12T00:58:46.142Z,101163.72
2022-12-12T01:01:15.728Z,101154.84
2022-12-12T01:03:43.265Z,101176.66
2022-12-12T01:06:10.695Z,101141.75
2022-12-12T01:08:39.169Z,101166.25
2022-12-12T01:11:07.071Z,101167.94
2022-12-12T01:13:34.345Z,101158.66
2022-12-12T01:16:00.937Z,101175.78
2022-12-12T01:18:27.515Z,101171.50
2022-12-12T01:20:54.412Z,101180.84
2022-12-12T01:23:21.074Z,101176.50
2022-12-12T01:25:47.628Z,101184.34
2022-12-12T01:28:14.717Z,101172.91
2022-12-12T01:30:41.620Z,101182.63
2022-12-12T01:33:08.655Z,101176.34
2022-12-12T01:35:35.933Z,101170.94
2022-12-12T01:38:02.464Z,101167.34
2022-12-12T01:40:30.891Z,101172.50
2022-12-12T01:42:58.573Z,101187.19
2022-12-12T01:46:02.695Z,101191.63
2022-12-12T01:48:53.773Z,101177.44
2022-12-12T01:51:23.553Z,101195.81
2022-12-12T01:53:56.521Z,101183.38
2022-12-12T01:56:24.173Z,101181.84
2022-12-12T01:58:53.078Z,101200.03
2022-12-12T02:01:22.141Z,101201.59
2022-12-12T02:03:49.634Z,101203.09
2022-12-12T02:06:22.405Z,101190.72
2022-12-12T02:08:51.261Z,101194.63
2022-12-12T02:11:18.300Z,101210.63
2022-12-12T02:13:46.206Z,101191.75
2022-12-12T02:16:28.253Z,101203.81
2022-12-12T02:19:15.490Z,101206.28
2022-12-12T02:21:55.720Z,101210.63
2022-12-12T02:24:50.794Z,101219.34
2022-12-12T02:27:31.173Z,101190.00
2022-12-12T02:29:57.665Z,101215.09
2022-12-12T02:32:24.722Z,101210.88
2022-12-12T02:35:04.030Z,101203.81
2022-12-12T02:37:46.891Z,101196.81
2022-12-12T02:40:21.103Z,101195.44
2022-12-12T02:43:09.887Z,101209.84
2022-12-12T02:45:56.437Z,101211.75
2022-12-12T02:48:34.048Z,101208.41
2022-12-12T02:51:03.958Z,101206.44
2022-12-12T02:53:30.503Z,101216.72
2022-12-12T02:56:22.919Z,101229.34
2022-12-12T02:58:50.019Z,101222.50
2022-12-12T03:01:34.866Z,101225.50
2022-12-12T03:04:31.227Z,101216.56
2022-12-12T03:07:36.032Z,101215.63
2022-12-12T03:10:19.673Z,101220.78
2022-12-12T03:13:16.015Z,101225.25
2022-12-12T03:15:57.789Z,101224.34
2022-12-12T03:18:42.165Z,101211.16
2022-12-12T03:21:17.735Z,101217.28
2022-12-12T03:23:50.108Z,101222.41
2022-12-12T03:26:31.616Z,101215.53
2022-12-12T03:29:06.254Z,101216.66
2022-12-12T03:31:37.402Z,101213.94
2022-12-12T03:34:14.723Z,101221.81
2022-12-12T03:36:50.190Z,101223.72
2022-12-12T03:39:32.688Z,101219.44
2022-12-12T03:42:48.381Z,101229.03
2022-12-12T03:45:23.423Z,101226.34
2022-12-12T03:47:57.196Z,101230.63
2022-12-12T03:50:30.478Z,101225.50
2022-12-12T03:53:02.821Z,101222.25
2022-12-12T03:55:50.695Z,101223.56
2022-12-12T03:58:27.803Z,101226.25
2022-12-12T04:00:57.985Z,101233.16
2022-12-12T04:03:34.410Z,101234.72
2022-12-12T04:06:27.354Z,101222.00
2022-12-12T04:09:26.271Z,101222.94
2022-12-12T04:12:32.729Z,101228.09
2022-12-12T04:15:14.360Z,101233.72
2022-12-12T04:17:46.196Z,101227.59
2022-12-12T04:20:50.120Z,101240.50
2022-12-12T04:23:50.423Z,101235.19
2022-12-12T04:26:41.876Z,101231.88
2022-12-12T04:29:18.881Z,101243.66
2022-12-12T04:32:16.891Z,101236.06
2022-12-12T04:34:58.569Z,101241.84
2022-12-12T04:37:32.858Z,101249.53
2022-12-12T04:40:03.494Z,101242.81
2022-12-12T04:42:37.459Z,101235.03
2022-12-12T04:45:10.574Z,101231.69
2022-12-12T04:47:40.318Z,101245.00
2022-12-12T04:50:09.556Z,101251.13
2022-12-12T04:52:38.282Z,101248.34
2022-12-12T04:55:33.794Z,101246.84
2022-12-12T04:58:02.329Z,101246.56
2022-12-12T05:00:35.194Z,101247.72
2022-12-12T05:03:43.412Z,101244.38
2022-12-12T05:06:14.378Z,101241.06
2022-12-12T05:08:50.490Z,101240.88
2022-12-12T05:11:22.101Z,101245.78
2022-12-12T05:13:49.803Z,101244.03
2022-12-12T05:16:28.597Z,101242.28
2022-12-12T05:18:55.214Z,101239.41
2022-12-12T05:21:22.430Z,101221.34
2022-12-12T05:23:48.935Z,101243.53
2022-12-12T05:26:28.210Z,101236.88
2022-12-12T05:28:55.358Z,101246.84
2022-12-12T05:31:22.953Z,101245.91
2022-12-12T05:33:49.883Z,101249.41
2022-12-12T05:36:16.798Z,101247.38
2022-12-12T05:38:43.638Z,101255.06
2022-12-12T05:41:11.612Z,101245.47
2022-12-12T05:43:38.598Z,101250.72
2022-12-12T05:46:06.703Z,101257.44
2022-12-12T05:48:34.229Z,101246.78
2022-12-12T05:51:02.121Z,101256.13
2022-12-12T05:53:29.146Z,101253.84
2022-12-12T05:55:55.839Z,101260.69
2022-12-12T05:58:23.256Z,101258.16
2022-12-12T06:00:51.529Z,101261.09
2022-12-12T06:03:19.222Z,101269.25
2022-12-12T06:05:45.771Z,101264.19
2022-12-12T06:08:12.387Z,101269.94
2022-12-12T06:10:39.047Z,101271.31
2022-12-12T06:13:05.668Z,101271.44
2022-12-12T06:15:32.471Z,101270.81
2022-12-12T06:17:59.020Z,101277.09
2022-12-12T06:20:25.831Z,101278.56
2022-12-12T06:22:54.036Z,101271.47
2022-12-12T06:25:21.358Z,101279.28
2022-12-12T06:27:47.963Z,101280.47
2022-12-12T06:30:14.733Z,101284.66
2022-12-12T06:32:41.571Z,101286.06
2022-12-12T06:35:09.058Z,101288.81
2022-12-12T06:37:35.963Z,101291.19
2022-12-12T06:40:03.204Z,101291.19
2022-12-12T06:42:29.832Z,101293.50
2022-12-12T06:44:56.485Z,101284.78
2022-12-12T06:47:23.059Z,101291.22
2022-12-12T06:49:49.632Z,101296.00
2022-12-12T06:52:16.290Z,101288.03
2022-12-12T06:54:42.828Z,101293.50
2022-12-12T06:57:09.349Z,101294.00
2022-12-12T06:59:35.849Z,101295.38
2022-12-12T07:02:02.691Z,101293.34
2022-12-12T07:04:29.365Z,101295.78
2022-12-12T07:06:56.124Z,101292.97
2022-12-12T07:09:22.725Z,101289.38
2022-12-12T07:11:49.324Z,101291.41
2022-12-12T07:14:15.917Z,101300.75
2022-12-12T07:16:42.590Z,101304.06
2022-12-12T07:19:09.839Z,101302.13
2022-12-12T07:21:36.427Z,101306.00
2022-12-12T07:24:03.058Z,101314.50
2022-12-12T07:26:29.606Z,101312.53
2022-12-12T07:28:56.122Z,101314.84
2022-12-12T07:31:26.055Z,101302.63
2022-12-12T07:33:54.408Z,101319.16
2022-12-12T07:36:21.394Z,101311.19
2022-12-12T07:38:48.470Z,101331.50
2022-12-12T07:41:18.126Z,101328.47
2022-12-12T07:43:45.938Z,101334.44
2022-12-12T07:46:16.754Z,101344.44
2022-12-12T07:48:44.552Z,101333.22
2022-12-12T07:51:11.441Z,101352.13
2022-12-12T07:53:37.904Z,101345.00
2022-12-12T07:56:07.485Z,101343.34
2022-12-12T07:58:34.556Z,101347.34
2022-12-12T08:01:01.104Z,101360.97
2022-12-12T08:03:27.627Z,101352.41
2022-12-12T08:05:54.222Z,101361.03
2022-12-12T08:08:21.148Z,101363.56
2022-12-12T08:10:47.747Z,101356.66
2022-12-12T08:13:14.445Z,101360.75
2022-12-12T08:15:43.137Z,101365.13
2022-12-12T08:18:09.751Z,101366.88
2022-12-12T08:20:39.880Z,101366.03
2022-12-12T08:23:06.999Z,101353.94
2022-12-12T08:25:35.634Z,101370.47
2022-12-12T08:28:02.467Z,101372.91
2022-12-12T08:30:29.066Z,101360.16
2022-12-12T08:32:55.628Z,101369.03
2022-12-12T08:35:22.121Z,101368.91
2022-12-12T08:37:48.633Z,101368.34
2022-12-12T08:40:15.215Z,101372.66
2022-12-12T08:42:41.768Z,101364.16
2022-12-12T08:45:08.658Z,101371.16
2022-12-12T08:47:35.248Z,101376.53
2022-12-12T08:50:01.762Z,101359.63
2022-12-12T08:52:28.264Z,101364.09
2022-12-12T08:54:55.680Z,101372.03
2022-12-12T08:57:25.905Z,101369.22
2022-12-12T08:59:52.780Z,101366.69
2022-12-12T09:02:19.360Z,101368.25
2022-12-12T09:04:45.995Z,101375.25
2022-12-12T09:07:12.544Z,101369.34
2022-12-12T09:09:39.373Z,101376.25
2022-12-12T09:12:06.200Z,101372.25
2022-12-12T09:14:33.302Z,101376.63
2022-12-12T09:16:59.928Z,101374.97
2022-12-12T09:19:26.445Z,101375.19
2022-12-12T09:21:52.976Z,101375.94
2022-12-12T09:24:19.652Z,101369.34
2022-12-12T09:26:46.341Z,101361.34
2022-12-12T09:29:13.251Z,101367.91
2022-12-12T09:31:39.903Z,101373.81
2022-12-12T09:34:06.536Z,101372.25
2022-12-12T09:36:33.095Z,101375.47
2022-12-12T09:38:59.634Z,101381.59
2022-12-12T09:41:30.820Z,101381.81
2022-12-12T09:44:16.034Z,101378.00
2022-12-12T09:46:46.814Z,101384.69
2022-12-12T09:50:00.779Z,101373.81
2022-12-12T09:52:36.708Z,101375.56
2022-12-12T09:55:21.888Z,101362.44
2022-12-12T09:58:28.601Z,101384.63
2022-12-12T10:01:08.477Z,101369.44
2022-12-12T10:03:54.055Z,101373.88
2022-12-12T10:06:37.273Z,101374.84
2022-12-12T10:09:14.167Z,101366.78
2022-12-12T10:11:51.718Z,101379.25
2022-12-12T10:14:38.444Z,101375.13
2022-12-12T10:17:13.943Z,101367.66
2022-12-12T10:19:50.713Z,101365.91
2022-12-12T10:22:26.099Z,101373.09
2022-12-12T10:24:59.159Z,101369.38
2022-12-12T10:27:25.704Z,101372.00
2022-12-12T10:29:59.636Z,101360.88
2022-12-12T10:32:46.158Z,101367.03
2022-12-12T10:35:27.365Z,101368.69
2022-12-12T10:38:00.960Z,101370.72
2022-12-12T10:40:30.189Z,101369.03
2022-12-12T10:43:05.968Z,101366.13
2022-12-12T10:45:54.178Z,101365.22
2022-12-12T10:48:21.188Z,101359.41
2022-12-12T10:50:52.721Z,101357.56
2022-12-12T10:53:20.072Z,101344.63
2022-12-12T10:56:01.019Z,101351.97
2022-12-12T10:58:36.622Z,101346.91
2022-12-12T11:01:10.400Z,101350.13
2022-12-12T11:03:45.430Z,101341.84
2022-12-12T11:06:14.655Z,101355.75
2022-12-12T11:08:59.138Z,101359.16
2022-12-12T11:11:28.126Z,101354.28
2022-12-12T11:13:59.266Z,101352.03
2022-12-12T11:16:28.008Z,101338.75
2022-12-12T11:19:07.310Z,101335.06
2022-12-12T11:21:36.607Z,101335.88
2022-12-12T11:24:13.089Z,101339.13
2022-12-12T11:26:52.984Z,101343.13
2022-12-12T11:29:44.687Z,101344.19
2022-12-12T11:32:27.246Z,101348.84
2022-12-12T11:34:58.206Z,101331.19
2022-12-12T11:37:29.171Z,101337.47
2022-12-12T11:39:57.399Z,101330.25
2022-12-12T11:42:30.637Z,101336.50
2022-12-12T11:45:09.335Z,101332.25
2022-12-12T11:47:43.335Z,101322.69
2022-12-12T11:50:27.355Z,101321.41
2022-12-12T11:52:56.763Z,101325.06
2022-12-12T11:55:27.339Z,101320.81
2022-12-12T11:58:20.297Z,101310.75
2022-12-12T12:01:17.813Z,101313.81
2022-12-12T12:04:07.333Z,101316.25
2022-12-12T12:06:48.797Z,101323.97
2022-12-12T12:09:22.790Z,101325.69
2022-12-12T12:12:20.865Z,101315.28
2022-12-12T12:14:57.219Z,101314.69
2022-12-12T12:17:23.676Z,101321.09
2022-12-12T12:19:58.903Z,101314.69
2022-12-12T12:22:47.034Z,101297.09
2022-12-12T12:25:16.650Z,101311.56
2022-12-12T12:28:12.487Z,101314.34
2022-12-12T12:31:01.621Z,101307.53
2022-12-12T12:33:44.023Z,101304.09
2022-12-12T12:36:21.366Z,101300.88
2022-12-12T12:39:21.507Z,101319.25
2022-12-12T12:42:03.225Z,101311.25
2022-12-12T12:44:52.158Z,101308.22
2022-12-12T12:47:40.462Z,101307.09
2022-12-12T12:50:35.723Z,101312.22
2022-12-12T12:53:24.181Z,101303.75
2022-12-12T12:55:56.560Z,101304.56
2022-12-12T12:58:29.107Z,101301.31
2022-12-12T13:01:05.404Z,101309.88
2022-12-12T13:03:38.555Z,101290.66
2022-12-12T13:06:12.726Z,101314.16
2022-12-12T13:09:03.370Z,101305.78
2022-12-12T13:11:38.803Z,101302.72
2022-12-12T13:14:34.522Z,101304.38
2022-12-12T13:17:06.856Z,101309.28
2022-12-12T13:19:38.973Z,101295.53
2022-12-12T13:22:18.638Z,101305.63
2022-12-12T13:25:15.485Z,101301.56
2022-12-12T13:27:48.029Z,101282.81
2022-12-12T13:30:24.766Z,101297.47
2022-12-12T13:33:02.999Z,101288.13
2022-12-12T13:35:44.378Z,101291.53
2022-12-12T13:38:37.978Z,101297.56
2022-12-12T13:41:10.027Z,101293.91
2022-12-12T13:43:45.656Z,101294.41
2022-12-12T13:46:19.939Z,101313.22
2022-12-12T13:49:06.717Z,101307.19
2022-12-12T13:51:41.509Z,101313.81
2022-12-12T13:54:12.544Z,101322.13
2022-12-12T13:57:04.883Z,101315.22
2022-12-12T13:59:31.858Z,101310.75
2022-12-12T14:02:00.335Z,101319.34
2022-12-12T14:04:33.281Z,101316.59
2022-12-12T14:07:15.501Z,101312.13
2022-12-12T14:09:49.322Z,101314.94
2022-12-12T14:12:33.701Z,101317.13
2022-12-12T14:15:18.894Z,101311.88
2022-12-12T14:17:54.142Z,101314.34
2022-12-12T14:20:27.973Z,101320.00
2022-12-12T14:23:24.701Z,101313.28
2022-12-12T14:25:52.161Z,101315.28
2022-12-12T14:28:30.835Z,101316.03
2022-12-12T14:31:17.092Z,101316.56
2022-12-12T14:33:51.472Z,101318.50
2022-12-12T14:36:51.098Z,101318.94
2022-12-12T14:39:32.894Z,101321.25
2022-12-12T14:42:03.316Z,101321.69
2022-12-12T14:44:37.260Z,101320.44
2022-12-12T14:47:09.104Z,101320.16
2022-12-12T14:49:36.261Z,101325.41
2022-12-12T14:52:03.659Z,101321.63
2022-12-12T14:54:32.101Z,101322.06
2022-12-12T14:56:59.348Z,101326.03
2022-12-12T14:59:28.150Z,101330.06
2022-12-12T15:02:27.181Z,101326.88
2022-12-12T15:05:04.437Z,101331.66
2022-12-12T15:07:38.869Z,101336.59
2022-12-12T15:10:26.655Z,101344.72
2022-12-12T15:12:53.975Z,101340.72
2022-12-12T15:15:26.678Z,101347.38
2022-12-12T15:17:55.765Z,101355.72
2022-12-12T15:20:25.660Z,101362.22
2022-12-12T15:22:57.317Z,101353.97
2022-12-12T15:25:27.128Z,101360.00
2022-12-12T15:27:56.262Z,101351.81
2022-12-12T15:30:38.040Z,101363.81
2022-12-12T15:33:07.923Z,101359.91
2022-12-12T15:35:35.073Z,101353.56
2022-12-12T15:38:12.235Z,101363.69
2022-12-12T15:40:40.156Z,101354.53
2022-12-12T15:43:14.475Z,101364.53
2022-12-12T15:45:49.586Z,101356.78
2022-12-12T15:48:17.113Z,101366.22
2022-12-12T15:50:43.600Z,101364.25
2022-12-12T15:53:25.618Z,101369.81
2022-12-12T15:56:02.325Z,101368.59
2022-12-12T15:58:33.589Z,101365.03
2022-12-12T16:01:24.128Z,101373.34
2022-12-12T16:04:05.963Z,101378.41
2022-12-12T16:06:36.564Z,101374.59
2022-12-12T16:09:11.603Z,101374.19
2022-12-12T16:11:45.623Z,101383.72
2022-12-12T16:14:42.487Z,101383.44
2022-12-12T16:17:23.401Z,101374.78
2022-12-12T16:19:52.619Z,101376.53
2022-12-12T16:22:42.727Z,101384.78
2022-12-12T16:25:22.917Z,101375.44
2022-12-12T16:28:07.842Z,101374.56
2022-12-12T16:30:35.669Z,101363.19
2022-12-12T16:33:24.687Z,101371.72
2022-12-12T16:35:51.530Z,101375.72
2022-12-12T16:38:18.576Z,101374.63
2022-12-12T16:40:47.637Z,101365.88
2022-12-12T16:43:17.283Z,101376.06
2022-12-12T16:45:44.131Z,101364.78
2022-12-12T16:48:17.967Z,101346.19
2022-12-12T16:50:48.227Z,101373.78
2022-12-12T16:53:15.142Z,101376.25
2022-12-12T16:55:44.376Z,101374.47
2022-12-12T16:58:11.198Z,101376.00
2022-12-12T17:00:38.293Z,101366.28
2022-12-12T17:03:05.385Z,101379.13
2022-12-12T17:05:33.136Z,101364.00
2022-12-12T17:07:59.724Z,101374.72
2022-12-12T17:10:26.293Z,101375.19
2022-12-12T17:12:54.942Z,101372.66
2022-12-12T17:15:30.206Z,101369.84
2022-12-12T17:17:57.567Z,101379.38
2022-12-12T17:20:24.984Z,101375.63
2022-12-12T17:22:55.149Z,101379.81
2022-12-12T17:25:22.770Z,101374.03
2022-12-12T17:27:50.597Z,101381.91
2022-12-12T17:30:18.556Z,101377.44
2022-12-12T17:35:29.086Z,101374.59
2022-12-12T17:37:55.632Z,101366.06
2022-12-12T17:40:22.213Z,101371.31
2022-12-12T17:42:48.906Z,101370.13
2022-12-12T17:45:15.424Z,101373.41
2022-12-12T17:47:41.916Z,101371.53
2022-12-12T17:50:09.589Z,101366.28
2022-12-12T17:52:36.235Z,101364.22
2022-12-12T17:55:54.359Z,101373.75
2022-12-12T17:57:49.860Z,101370.03
2022-12-12T18:00:16.993Z,101374.41
2022-12-12T18:02:44.302Z,101343.63
2022-12-12T18:05:10.945Z,101335.75
2022-12-12T18:07:37.521Z,101376.38
2022-12-12T18:10:04.587Z,101373.00
2022-12-12T18:12:31.248Z,101377.94
2022-12-12T18:14:57.741Z,101365.78
2022-12-12T18:17:24.798Z,101362.94
2022-12-12T18:19:51.316Z,101365.66
2022-12-12T18:22:17.960Z,101347.81
2022-12-12T18:24:44.600Z,101369.28
2022-12-12T18:27:11.382Z,101360.63
2022-12-12T18:29:38.010Z,101353.41
2022-12-12T18:32:05.022Z,101356.91
2022-12-12T18:34:32.170Z,101364.34
2022-12-12T18:36:58.715Z,101371.06
2022-12-12T18:39:25.251Z,101360.31
2022-12-12T18:41:52.189Z,101361.19
2022-12-12T18:44:19.306Z,101364.50
2022-12-12T18:46:45.982Z,101362.63
2022-12-12T18:49:15.379Z,101359.88
2022-12-12T18:51:43.139Z,101361.22
2022-12-12T18:54:15.224Z,101373.34
2022-12-12T18:56:43.879Z,101369.53
2022-12-12T18:59:10.818Z,101367.78
2022-12-12T19:01:38.874Z,101373.50
2022-12-12T19:04:11.667Z,101367.47
2022-12-12T19:06:40.693Z,101378.00
2022-12-12T19:09:12.911Z,101381.72
2022-12-12T19:11:39.498Z,101390.28
2022-12-12T19:14:07.765Z,101379.84
2022-12-12T19:16:34.514Z,101366.47
2022-12-12T19:19:04.992Z,101386.50
2022-12-12T19:21:33.777Z,101374.25
2022-12-12T19:24:02.899Z,101379.28
2022-12-12T19:26:30.661Z,101388.03
2022-12-12T19:29:00.161Z,101374.03
2022-12-12T19:31:26.939Z,101382.34
2022-12-12T19:33:53.705Z,101378.84
2022-12-12T19:36:25.560Z,101392.44
2022-12-12T19:38:53.432Z,101387.31
2022-12-12T19:41:22.842Z,101381.16
2022-12-12T19:43:51.154Z,101370.16
2022-12-12T19:46:20.124Z,101382.56
2022-12-12T19:48:48.115Z,101385.06
2022-12-12T23:57:39.684Z,101388.44
